New Milford, Pennsylvania
Current Conditions -  °F | °C
As of 10:53 PM on Friday 24 Oct 2014 (Local Time) from KBGM Reporting Station
Clear Clear  
Wind Chill: 42°   Ceiling: Unl
Heat Index: 46°   Visibility: 10mi
Dew Point: 29°   Wind: 7mph
Humidity: 51%   Direction: 330°NNW
Pressure: 29.91"   Gusts: NA
Location:  41.87°N, 75.73°W
Report Text: KBGM 250253Z 33006KT 10SM CLR 08/M02 A2991 RMK AO2 SLP132 T00781017 51005
Loading
Personal Weather Stations






























Interactive Weather Map
Tropical Storm Tracking
New forecast layout! Learn more

10-Day Weather Forecast

Advertisements
Track Severe Weather on mobile